Scottsville, Kansas
Current Conditions -  °F | °C
As of 12:55 AM on Monday 22 Dec 2014 (Local Time) from KCNK Reporting Station
Haze Haze  
Wind Chill: 36°   Ceiling: 300
Heat Index: 43°   Visibility: 2mi
Dew Point: 43°   Wind: 15mph
Humidity: 100%   Direction: 160°SSE
Pressure: 29.57"   Gusts: NA
Location:  39.3832°N, 98.1405°W
Report Text: KCNK 220655Z AUTO 16013KT 2SM BR OVC003 06/06 A2957 RMK AO2 RAE04 SLP018 P0000 T00610061
Loading
Personal Weather Stations






























Interactive Weather Map New forecast layout! Learn more

10-Day Weather Forecast

Advertisements
Track Severe Weather on mobile